Terminal Aerodrome Forecast
Issued by NWS

Home | Current Version | Previous Version | Graphics & Text | Print | Product List | Glossary On
Versions: 1 2 3 4 5 6 7 8 9 10 11 12 13 14 15 16 17 18 19 20 21 22 23 24 25 26 27 28 29 30 31 32 33
000
FTUS43 KABR 242206 AAB
TAFATY
TAF AMD
KATY 242206Z 2422/2518 03012KT P6SM OVC012
     FM250200 03010KT 5SM BR SCT015
     FM250900 06007KT 3SM BR BKN003
     FM251100 06008KT 2SM BR BKN008
     FM251600 09009KT 6SM BR SCT015=

USA.gov is the U.S. government's official web portal to all federal, state and local government web resources and services.